createdAt,value
2023-02-08T00:00:27.407Z,1.30
2023-02-08T00:02:54.992Z,0.17
2023-02-08T00:05:22.341Z,0.03
2023-02-08T00:07:49.361Z,0.13
2023-02-08T00:10:16.817Z,0.10
2023-02-08T00:12:43.930Z,0.52
2023-02-08T00:15:11.074Z,0.47
2023-02-08T00:17:38.217Z,0.00
2023-02-08T00:20:07.199Z,1.65
2023-02-08T00:22:34.285Z,0.00
2023-02-08T00:25:01.605Z,0.10
2023-02-08T00:27:28.579Z,0.00
2023-02-08T00:29:56.004Z,0.00
2023-02-08T00:32:23.531Z,0.03
2023-02-08T00:34:51.557Z,0.75
2023-02-08T00:37:18.388Z,0.20
2023-02-08T00:39:45.097Z,0.20
2023-02-08T00:42:12.429Z,1.10
2023-02-08T00:44:40.078Z,0.22
2023-02-08T00:47:07.390Z,0.00
2023-02-08T00:49:34.544Z,0.17
2023-02-08T00:52:02.290Z,0.00
2023-02-08T00:54:29.795Z,0.20
2023-02-08T00:56:57.243Z,0.30
2023-02-08T00:59:25.313Z,1.10
2023-02-08T01:01:52.533Z,0.28
2023-02-08T01:04:20.036Z,0.00
2023-02-08T01:06:48.194Z,0.20
2023-02-08T01:09:15.214Z,0.00
2023-02-08T01:11:42.876Z,0.75
2023-02-08T01:14:10.613Z,1.85
2023-02-08T01:16:38.441Z,0.00
2023-02-08T01:19:06.664Z,0.95
2023-02-08T01:21:39.197Z,0.35
2023-02-08T01:24:07.449Z,1.10
2023-02-08T01:26:34.434Z,0.00
2023-02-08T01:29:01.824Z,0.10
2023-02-08T01:31:34.230Z,0.25
2023-02-08T01:34:02.501Z,0.03
2023-02-08T01:36:31.773Z,0.22
2023-02-08T01:38:59.975Z,0.30
2023-02-08T01:41:30.039Z,0.22
2023-02-08T01:44:02.949Z,0.00
2023-02-08T01:46:32.673Z,0.00
2023-02-08T01:49:06.045Z,0.52
2023-02-08T01:51:37.115Z,0.00
2023-02-08T01:54:07.881Z,0.88
2023-02-08T01:56:38.720Z,0.10
2023-02-08T02:01:36.671Z,0.10
2023-02-08T02:04:05.826Z,0.20
2023-02-08T02:06:43.031Z,1.65
2023-02-08T02:09:18.294Z,0.00
2023-02-08T02:11:45.976Z,0.43
2023-02-08T02:14:13.272Z,0.10
2023-02-08T02:16:40.709Z,0.95
2023-02-08T02:19:15.485Z,1.20
2023-02-08T02:21:51.130Z,0.00
2023-02-08T02:25:13.368Z,0.20
2023-02-08T02:28:08.171Z,0.00
2023-02-08T02:30:37.987Z,0.05
2023-02-08T02:33:13.307Z,0.00
2023-02-08T02:35:57.413Z,0.10
2023-02-08T02:38:34.788Z,0.00
2023-02-08T02:41:15.093Z,0.60
2023-02-08T02:43:46.750Z,0.05
2023-02-08T02:46:25.095Z,0.00
2023-02-08T02:49:16.166Z,1.02
2023-02-08T02:51:58.329Z,0.03
2023-02-08T02:54:33.973Z,0.28
2023-02-08T02:57:06.240Z,0.50
2023-02-08T02:59:38.916Z,1.23
2023-02-08T03:02:06.712Z,0.35
2023-02-08T03:04:33.717Z,0.10
2023-02-08T03:07:19.302Z,0.80
2023-02-08T03:10:06.317Z,0.38
2023-02-08T03:12:42.209Z,0.00
2023-02-08T03:15:17.685Z,0.00
2023-02-08T03:18:24.265Z,0.68
2023-02-08T03:21:00.818Z,1.33
2023-02-08T03:23:32.665Z,1.23
2023-02-08T03:26:04.143Z,0.10
2023-02-08T03:28:51.961Z,0.00
2023-02-08T03:31:22.296Z,0.00
2023-02-08T03:34:03.201Z,0.65
2023-02-08T03:39:02.408Z,0.00
2023-02-08T03:41:33.486Z,0.05
2023-02-08T03:44:07.624Z,0.30
2023-02-08T03:46:39.118Z,0.00
2023-02-08T03:49:14.087Z,0.10
2023-02-08T03:51:41.216Z,0.25
2023-02-08T03:54:11.055Z,0.40
2023-02-08T03:56:47.002Z,0.00
2023-02-08T03:59:18.401Z,0.43
2023-02-08T04:01:49.153Z,0.00
2023-02-08T04:06:42.626Z,0.00
2023-02-08T04:09:09.378Z,0.30
2023-02-08T04:11:37.625Z,0.00
2023-02-08T04:14:04.425Z,0.00
2023-02-08T04:16:31.187Z,0.00
2023-02-08T04:18:57.888Z,0.00
2023-02-08T04:21:24.639Z,1.27
2023-02-08T04:23:51.412Z,0.00
2023-02-08T04:26:18.048Z,0.05
2023-02-08T04:28:44.996Z,0.30
2023-02-08T04:31:11.851Z,0.00
2023-02-08T04:33:38.677Z,0.00
2023-02-08T04:36:05.693Z,0.00
2023-02-08T04:38:32.605Z,0.00
2023-02-08T04:40:59.336Z,0.00
2023-02-08T04:43:26.142Z,0.45
2023-02-08T04:45:52.956Z,0.00
2023-02-08T04:48:19.892Z,0.60
2023-02-08T04:50:46.662Z,0.00
2023-02-08T04:53:13.468Z,1.10
2023-02-08T04:55:40.151Z,0.32
2023-02-08T04:58:06.890Z,0.17
2023-02-08T05:00:33.787Z,0.52
2023-02-08T05:03:00.633Z,0.30
2023-02-08T05:05:28.210Z,0.00
2023-02-08T05:07:55.049Z,0.00
2023-02-08T05:10:22.313Z,0.00
2023-02-08T05:12:49.076Z,0.00
2023-02-08T05:15:15.837Z,0.40
2023-02-08T05:17:42.573Z,0.00
2023-02-08T05:20:10.048Z,1.77
2023-02-08T05:22:37.060Z,0.00
2023-02-08T05:25:04.111Z,0.45
2023-02-08T05:27:30.983Z,0.10
2023-02-08T05:29:59.092Z,0.00
2023-02-08T05:32:26.121Z,0.77
2023-02-08T05:34:52.815Z,0.00
2023-02-08T05:37:19.715Z,0.00
2023-02-08T05:39:46.424Z,0.00
2023-02-08T05:42:13.218Z,0.00
2023-02-08T05:44:39.949Z,0.00
2023-02-08T05:47:06.841Z,0.00
2023-02-08T05:49:33.550Z,0.10
2023-02-08T05:52:00.385Z,1.65
2023-02-08T05:54:27.245Z,1.80
2023-02-08T05:56:54.010Z,1.75
2023-02-08T05:59:20.752Z,1.80
2023-02-08T06:01:47.586Z,1.48
2023-02-08T06:04:14.346Z,2.45
2023-02-08T06:06:41.251Z,1.88
2023-02-08T06:09:07.920Z,1.83
2023-02-08T06:11:36.205Z,1.20
2023-02-08T06:14:03.311Z,1.48
2023-02-08T06:16:30.294Z,2.67
2023-02-08T06:18:57.756Z,3.33
2023-02-08T06:21:25.051Z,4.75
2023-02-08T06:23:51.821Z,2.58
2023-02-08T06:26:18.706Z,3.15
2023-02-08T06:28:45.557Z,2.13
2023-02-08T06:31:12.385Z,1.98
2023-02-08T06:33:39.069Z,1.98
2023-02-08T06:36:06.643Z,2.67
2023-02-08T06:38:33.318Z,4.25
2023-02-08T06:41:00.082Z,1.42
2023-02-08T06:43:26.821Z,1.63
2023-02-08T06:45:53.600Z,1.73
2023-02-08T06:48:20.280Z,1.77
2023-02-08T06:50:47.021Z,1.60
2023-02-08T06:53:13.742Z,1.40
2023-02-08T06:55:40.507Z,1.42
2023-02-08T06:58:07.272Z,1.42
2023-02-08T07:00:34.421Z,1.90
2023-02-08T07:03:01.137Z,1.20
2023-02-08T07:05:28.189Z,1.05
2023-02-08T07:07:54.852Z,1.92
2023-02-08T07:10:21.704Z,1.13
2023-02-08T07:12:48.448Z,1.23
2023-02-08T07:15:15.277Z,0.98
2023-02-08T07:17:42.007Z,1.23
2023-02-08T07:20:11.455Z,1.00
2023-02-08T07:22:39.103Z,1.35
2023-02-08T07:25:08.732Z,1.52
2023-02-08T07:27:35.909Z,1.20
2023-02-08T07:30:02.651Z,1.10
2023-02-08T07:32:29.433Z,0.98
2023-02-08T07:34:56.136Z,1.30
2023-02-08T07:37:23.828Z,0.90
2023-02-08T07:39:50.511Z,1.20
2023-02-08T07:42:17.369Z,1.13
2023-02-08T07:44:54.656Z,1.25
2023-02-08T07:47:21.477Z,0.60
2023-02-08T07:49:48.168Z,1.00
2023-02-08T07:52:14.945Z,1.10
2023-02-08T07:54:41.683Z,0.80
2023-02-08T07:57:08.565Z,0.98
2023-02-08T07:59:35.238Z,1.08
2023-02-08T08:02:02.070Z,1.35
2023-02-08T08:04:28.780Z,1.50
2023-02-08T08:06:55.568Z,1.30
2023-02-08T08:09:24.300Z,0.90
2023-02-08T08:11:51.010Z,0.57
2023-02-08T08:14:17.753Z,1.10
2023-02-08T08:16:44.562Z,1.00
2023-02-08T08:19:11.268Z,0.98
2023-02-08T08:21:38.106Z,1.60
2023-02-08T08:24:04.902Z,1.67
2023-02-08T08:26:31.662Z,1.27
2023-02-08T08:28:58.452Z,1.35
2023-02-08T08:31:25.621Z,1.00
2023-02-08T08:33:52.576Z,1.02
2023-02-08T08:36:19.509Z,1.30
2023-02-08T08:38:46.379Z,1.30
2023-02-08T08:41:17.897Z,0.73
2023-02-08T08:43:44.978Z,1.35
2023-02-08T08:46:11.992Z,1.23
2023-02-08T08:48:39.070Z,1.48
2023-02-08T08:51:06.864Z,1.70
2023-02-08T08:53:34.378Z,1.27
2023-02-08T08:56:01.102Z,1.13
2023-02-08T08:58:27.903Z,1.30
2023-02-08T09:00:58.847Z,1.10
2023-02-08T09:03:26.818Z,1.60
2023-02-08T09:05:53.705Z,1.23
2023-02-08T09:08:20.435Z,1.05
2023-02-08T09:10:47.174Z,1.33
2023-02-08T09:13:19.342Z,1.23
2023-02-08T09:15:46.390Z,1.10
2023-02-08T09:18:13.124Z,1.15
2023-02-08T09:20:40.708Z,1.35
2023-02-08T09:23:07.579Z,1.10
2023-02-08T09:25:34.336Z,1.50
2023-02-08T09:28:01.131Z,1.60
2023-02-08T09:30:27.932Z,1.40
2023-02-08T09:32:54.569Z,1.10
2023-02-08T09:35:21.384Z,0.95
2023-02-08T09:37:48.213Z,1.17
2023-02-08T09:40:25.993Z,1.15
2023-02-08T09:43:08.869Z,1.48
2023-02-08T09:45:59.029Z,1.20
2023-02-08T09:51:19.414Z,1.20
2023-02-08T09:53:50.411Z,1.42
2023-02-08T09:56:20.754Z,1.08
2023-02-08T09:58:50.124Z,1.35
2023-02-08T10:01:21.932Z,1.45
2023-02-08T10:03:50.667Z,1.15
2023-02-08T10:06:19.377Z,1.38
2023-02-08T10:08:48.561Z,1.10
2023-02-08T10:11:30.349Z,1.05
2023-02-08T10:14:18.330Z,1.58
2023-02-08T10:17:03.611Z,1.52
2023-02-08T10:19:59.656Z,1.20
2023-02-08T10:22:50.750Z,1.38
2023-02-08T10:25:46.082Z,1.27
2023-02-08T10:28:46.278Z,1.30
2023-02-08T10:31:23.946Z,1.35
2023-02-08T10:33:59.828Z,1.02
2023-02-08T10:36:33.320Z,1.83
2023-02-08T10:39:00.937Z,1.05
2023-02-08T10:41:32.613Z,1.92
2023-02-08T10:44:10.011Z,1.10
2023-02-08T10:46:59.449Z,1.50
2023-02-08T10:49:52.439Z,1.33
2023-02-08T10:52:19.202Z,1.00
2023-02-08T10:54:45.878Z,1.63
2023-02-08T10:57:18.251Z,1.30
2023-02-08T10:59:51.845Z,1.77
2023-02-08T11:02:18.577Z,1.73
2023-02-08T11:05:02.396Z,1.20
2023-02-08T11:07:29.404Z,1.42
2023-02-08T11:10:12.973Z,1.60
2023-02-08T11:12:40.974Z,1.15
2023-02-08T11:15:28.096Z,1.40
2023-02-08T11:17:58.864Z,0.82
2023-02-08T11:20:36.788Z,2.50
2023-02-08T11:23:05.484Z,2.00
2023-02-08T11:25:41.483Z,1.58
2023-02-08T11:28:23.066Z,1.30
2023-02-08T11:30:58.713Z,1.50
2023-02-08T11:33:27.496Z,1.60
2023-02-08T11:35:57.193Z,1.55
2023-02-08T11:38:27.697Z,1.23
2023-02-08T11:40:58.143Z,1.55
2023-02-08T11:43:28.281Z,1.42
2023-02-08T11:45:56.147Z,1.58
2023-02-08T11:48:27.048Z,1.73
2023-02-08T11:50:59.496Z,1.85
2023-02-08T11:53:36.663Z,1.73
2023-02-08T11:56:15.836Z,1.70
2023-02-08T11:58:43.210Z,1.23
2023-02-08T12:01:20.428Z,2.05
2023-02-08T12:03:50.255Z,1.20
2023-02-08T12:06:17.464Z,1.70
2023-02-08T12:08:51.009Z,1.63
2023-02-08T12:11:44.150Z,1.75
2023-02-08T12:14:28.625Z,1.30
2023-02-08T12:17:14.948Z,1.63
2023-02-08T12:20:03.707Z,1.20
2023-02-08T12:22:31.240Z,0.90
2023-02-08T12:25:24.126Z,1.30
2023-02-08T12:28:16.962Z,1.48
2023-02-08T12:31:21.084Z,1.25
2023-02-08T12:33:58.594Z,1.98
2023-02-08T12:36:37.768Z,0.95
2023-02-08T12:39:26.027Z,1.98
2023-02-08T12:42:00.943Z,1.80
2023-02-08T12:44:27.602Z,1.30
2023-02-08T12:47:23.893Z,1.70
2023-02-08T12:50:19.871Z,1.73
2023-02-08T12:52:52.347Z,1.90
2023-02-08T12:55:25.893Z,1.25
2023-02-08T12:58:22.531Z,1.48
2023-02-08T13:00:51.188Z,1.55
2023-02-08T13:03:26.926Z,1.30
2023-02-08T13:06:02.150Z,1.27
2023-02-08T13:08:32.358Z,1.48
2023-02-08T13:11:17.775Z,1.35
2023-02-08T13:14:10.104Z,1.95
2023-02-08T13:16:42.863Z,1.30
2023-02-08T13:19:31.268Z,1.33
2023-02-08T13:21:59.052Z,1.38
2023-02-08T13:24:29.045Z,1.67
2023-02-08T13:26:56.693Z,1.42
2023-02-08T13:29:26.576Z,1.30
2023-02-08T13:32:00.427Z,1.48
2023-02-08T13:34:38.369Z,1.42
2023-02-08T13:37:24.640Z,1.55
2023-02-08T13:40:05.173Z,1.23
2023-02-08T13:42:39.726Z,1.70
2023-02-08T13:45:08.366Z,1.75
2023-02-08T13:47:43.973Z,1.50
2023-02-08T13:50:49.246Z,1.45
2023-02-08T13:53:17.495Z,1.50
2023-02-08T13:55:57.191Z,1.58
2023-02-08T13:58:59.070Z,1.50
2023-02-08T14:01:28.838Z,1.55
2023-02-08T14:04:07.675Z,1.48
2023-02-08T14:06:48.315Z,1.65
2023-02-08T14:09:53.332Z,1.67
2023-02-08T14:12:28.472Z,1.73
2023-02-08T14:15:06.878Z,1.50
2023-02-08T14:17:34.152Z,1.48
2023-02-08T14:20:06.829Z,1.70
2023-02-08T14:22:39.973Z,1.35
2023-02-08T14:25:44.195Z,1.13
2023-02-08T14:28:34.557Z,1.70
2023-02-08T14:31:05.414Z,1.30
2023-02-08T14:33:35.342Z,1.42
2023-02-08T14:36:05.143Z,1.80
2023-02-08T14:38:52.924Z,2.00
2023-02-08T14:41:42.684Z,1.92
2023-02-08T14:44:48.057Z,1.25
2023-02-08T14:47:31.940Z,1.80
2023-02-08T14:50:17.900Z,1.98
2023-02-08T14:52:58.218Z,1.15
2023-02-08T14:55:28.637Z,2.05
2023-02-08T14:57:56.400Z,2.15
2023-02-08T15:00:30.664Z,1.95
2023-02-08T15:02:57.702Z,1.60
2023-02-08T15:05:27.703Z,1.38
2023-02-08T15:07:59.149Z,1.88
2023-02-08T15:10:28.867Z,5.20
2023-02-08T15:13:03.735Z,2.13
2023-02-08T15:15:40.072Z,2.33
2023-02-08T15:18:18.728Z,1.27
2023-02-08T15:20:46.901Z,1.70
2023-02-08T15:23:22.212Z,1.55
2023-02-08T15:26:06.870Z,1.52
2023-02-08T15:28:36.824Z,1.50
2023-02-08T15:31:07.578Z,1.63
2023-02-08T15:36:06.195Z,1.60
2023-02-08T15:38:38.407Z,1.83
2023-02-08T15:41:24.197Z,2.35
2023-02-08T15:43:50.990Z,1.63
2023-02-08T15:46:23.187Z,2.17
2023-02-08T15:48:50.655Z,2.03
2023-02-08T15:51:20.145Z,1.80
2023-02-08T15:53:49.823Z,1.90
2023-02-08T15:56:38.609Z,1.70
2023-02-08T15:59:08.104Z,1.88
2023-02-08T16:01:37.476Z,2.00
2023-02-08T16:04:12.541Z,1.92
2023-02-08T16:06:45.237Z,1.95
2023-02-08T16:09:30.794Z,1.63
2023-02-08T16:12:01.010Z,2.10
2023-02-08T16:14:30.222Z,1.63
2023-02-08T16:16:58.806Z,1.55
2023-02-08T17:34:04.559Z,0.00
2023-02-08T17:36:33.591Z,0.00
2023-02-08T17:39:01.058Z,0.00
2023-02-08T17:41:28.080Z,0.00
2023-02-08T17:43:56.052Z,2.28
2023-02-08T17:46:25.156Z,0.43
2023-02-08T17:48:52.562Z,0.00
2023-02-08T17:51:27.416Z,0.00
2023-02-08T17:53:54.669Z,0.20
2023-02-08T17:56:27.273Z,0.00
2023-02-08T17:58:55.655Z,0.50
2023-02-08T18:01:24.695Z,0.00
2023-02-08T18:03:51.735Z,0.98
2023-02-08T18:06:19.627Z,0.00
2023-02-08T18:08:46.928Z,0.40
2023-02-08T18:11:18.049Z,0.32
2023-02-08T18:13:45.736Z,0.30
2023-02-08T18:16:21.057Z,0.13
2023-02-08T18:18:48.018Z,0.00
2023-02-08T18:21:17.590Z,0.35
2023-02-08T18:23:44.766Z,0.55
2023-02-08T18:26:14.375Z,0.20
2023-02-08T18:28:41.738Z,0.95
2023-02-08T18:31:11.652Z,0.13
2023-02-08T18:33:38.526Z,0.10
2023-02-08T18:36:11.418Z,0.60
2023-02-08T18:38:39.400Z,0.00
2023-02-08T18:41:10.605Z,0.00
2023-02-08T18:43:39.128Z,1.17
2023-02-08T18:46:09.904Z,0.00
2023-02-08T18:48:37.893Z,0.00
2023-02-08T18:51:05.961Z,0.00
2023-02-08T18:53:35.266Z,0.00
2023-02-08T18:56:05.598Z,0.45
2023-02-08T18:58:34.104Z,0.00
2023-02-08T19:01:16.560Z,0.30
2023-02-08T19:03:44.931Z,0.00
2023-02-08T19:06:18.226Z,0.00
2023-02-08T19:08:45.919Z,0.03
2023-02-08T19:11:18.608Z,0.10
2023-02-08T19:13:46.059Z,1.08
2023-02-08T19:16:13.398Z,0.00
2023-02-08T19:18:40.451Z,0.00
2023-02-08T19:21:09.256Z,0.65
2023-02-08T19:23:36.963Z,0.00
2023-02-08T19:26:17.374Z,0.17
2023-02-08T19:28:44.325Z,0.10
2023-02-08T19:31:13.977Z,0.00
2023-02-08T19:33:43.494Z,0.10
2023-02-08T19:36:22.166Z,0.03
2023-02-08T19:38:49.649Z,0.63
2023-02-08T19:41:25.972Z,0.20
2023-02-08T19:43:52.998Z,0.20
2023-02-08T19:46:22.601Z,0.28
2023-02-08T19:48:50.421Z,1.55
2023-02-08T19:51:21.619Z,0.20
2023-02-08T19:53:48.711Z,0.00
2023-02-08T19:56:17.388Z,0.00
2023-02-08T19:58:44.700Z,0.00
2023-02-08T20:01:14.627Z,2.45
2023-02-08T20:03:41.479Z,0.05
2023-02-08T20:06:15.791Z,0.43
2023-02-08T20:08:42.637Z,0.15
2023-02-08T20:11:18.463Z,0.00
2023-02-08T20:13:45.417Z,0.00
2023-02-08T20:16:12.265Z,0.20
2023-02-08T20:18:39.474Z,0.00
2023-02-08T20:21:07.218Z,0.03
2023-02-08T20:23:34.660Z,0.00
2023-02-08T20:26:12.097Z,0.10
2023-02-08T20:28:41.575Z,0.15
2023-02-08T20:31:09.537Z,0.10
2023-02-08T20:33:36.793Z,0.10
2023-02-08T20:36:12.012Z,0.00
2023-02-08T20:38:39.203Z,0.00
2023-02-08T20:41:08.186Z,0.20
2023-02-08T20:43:35.380Z,0.32
2023-02-08T20:46:06.108Z,0.47
2023-02-08T20:51:14.472Z,0.20
2023-02-08T20:53:42.154Z,0.00
2023-02-08T20:56:13.882Z,0.80
2023-02-08T20:58:40.939Z,0.85
2023-02-08T21:01:28.324Z,0.95
2023-02-08T21:03:56.518Z,0.00
2023-02-08T21:06:29.549Z,0.00
2023-02-08T21:08:57.833Z,0.10
2023-02-08T21:11:29.432Z,0.10
2023-02-08T21:13:56.769Z,1.17
2023-02-08T21:16:24.223Z,0.00
2023-02-08T21:18:51.043Z,0.50
2023-02-08T21:21:18.076Z,0.43
2023-02-08T21:23:45.412Z,0.00
2023-02-08T21:26:14.918Z,0.00
2023-02-08T21:28:43.260Z,0.05
2023-02-08T21:31:14.516Z,0.28
2023-02-08T21:33:42.848Z,0.00
2023-02-08T21:36:13.706Z,0.75
2023-02-08T21:38:40.608Z,0.00
2023-02-08T21:41:14.659Z,0.10
2023-02-08T21:43:41.572Z,0.00
2023-02-08T21:46:09.291Z,1.48
2023-02-08T21:48:56.777Z,0.98
2023-02-08T21:51:43.030Z,0.00
2023-02-08T21:54:34.236Z,0.10
2023-02-08T21:57:02.560Z,0.20
2023-02-08T21:59:29.813Z,0.57
2023-02-08T22:01:56.567Z,0.00
2023-02-08T22:04:23.774Z,0.00
2023-02-08T22:06:50.668Z,0.00
2023-02-08T22:09:17.946Z,0.43
2023-02-08T22:11:45.400Z,0.10
2023-02-08T22:14:12.910Z,0.20
2023-02-08T22:16:40.352Z,0.20
2023-02-08T22:19:07.699Z,0.10
2023-02-08T22:21:34.826Z,0.00
2023-02-08T22:24:01.754Z,0.85
2023-02-08T22:26:28.563Z,0.10
2023-02-08T22:28:55.336Z,0.00
2023-02-08T22:31:22.572Z,1.55
2023-02-08T22:33:52.624Z,0.00
2023-02-08T22:36:19.974Z,0.57
2023-02-08T22:38:46.714Z,0.00
2023-02-08T22:41:15.307Z,0.40
2023-02-08T22:43:42.206Z,0.45
2023-02-08T22:46:08.974Z,0.55
2023-02-08T22:48:35.952Z,1.10
2023-02-08T22:51:10.380Z,0.20
2023-02-08T22:53:37.138Z,0.25
2023-02-08T22:56:04.380Z,0.40
2023-02-08T22:58:31.272Z,0.40
2023-02-08T23:00:57.992Z,0.73
2023-02-08T23:03:25.139Z,0.00
2023-02-08T23:05:52.434Z,0.82
2023-02-08T23:08:21.218Z,0.20
2023-02-08T23:10:48.113Z,0.00
2023-02-08T23:13:14.957Z,1.63
2023-02-08T23:15:44.015Z,0.20
2023-02-08T23:18:10.794Z,0.43
2023-02-08T23:20:39.842Z,0.43
2023-02-08T23:23:06.933Z,0.20
2023-02-08T23:25:33.720Z,0.00
2023-02-08T23:28:00.667Z,0.47
2023-02-08T23:30:27.336Z,0.28
2023-02-08T23:32:54.107Z,0.40
2023-02-08T23:35:20.930Z,0.28
2023-02-08T23:37:47.671Z,0.65
2023-02-08T23:40:14.302Z,1.88
2023-02-08T23:42:41.134Z,0.32
2023-02-08T23:45:08.392Z,0.03
2023-02-08T23:47:35.417Z,1.48
2023-02-08T23:50:02.203Z,0.10
2023-02-08T23:52:29.009Z,0.35
2023-02-08T23:54:55.874Z,0.08
2023-02-08T23:57:22.753Z,1.30
2023-02-08T23:59:49.478Z,0.73
